sensor_id;sensor_type;location;lat;lon;timestamp;P1;durP1;ratioP1;P2;durP2;ratioP2
15516;SDS011;7860;52.030;5.572;2023-04-02T00:00:13;14.33;;;12.31;;
15516;SDS011;7860;52.030;5.572;2023-04-02T00:03:24;15.84;;;12.27;;
15516;SDS011;7860;52.030;5.572;2023-04-02T00:03:24;14.86;;;12.05;;
15516;SDS011;7860;52.030;5.572;2023-04-02T00:04:07;15.35;;;12.73;;
15516;SDS011;7860;52.030;5.572;2023-04-02T00:05:02;15.66;;;13.51;;
15516;SDS011;7860;52.030;5.572;2023-04-02T00:05:50;16.19;;;13.11;;
15516;SDS011;7860;52.030;5.572;2023-04-02T00:06:52;15.22;;;12.54;;
15516;SDS011;7860;52.030;5.572;2023-04-02T00:07:52;15.80;;;13.12;;
15516;SDS011;7860;52.030;5.572;2023-04-02T00:08:51;15.41;;;13.27;;
15516;SDS011;7860;52.030;5.572;2023-04-02T00:09:52;17.29;;;13.55;;
15516;SDS011;7860;52.030;5.572;2023-04-02T00:10:53;15.71;;;13.22;;
15516;SDS011;7860;52.030;5.572;2023-04-02T00:11:53;15.07;;;13.02;;
15516;SDS011;7860;52.030;5.572;2023-04-02T00:12:58;16.09;;;12.91;;
15516;SDS011;7860;52.030;5.572;2023-04-02T00:13:54;17.11;;;13.47;;
15516;SDS011;7860;52.030;5.572;2023-04-02T00:14:54;17.17;;;13.60;;
15516;SDS011;7860;52.030;5.572;2023-04-02T00:15:56;16.97;;;13.92;;
15516;SDS011;7860;52.030;5.572;2023-04-02T00:16:56;16.64;;;13.50;;
15516;SDS011;7860;52.030;5.572;2023-04-02T00:17:56;17.31;;;13.78;;
15516;SDS011;7860;52.030;5.572;2023-04-02T00:18:58;17.41;;;13.67;;
15516;SDS011;7860;52.030;5.572;2023-04-02T00:19:57;16.44;;;13.56;;
15516;SDS011;7860;52.030;5.572;2023-04-02T00:20:59;15.63;;;13.20;;
15516;SDS011;7860;52.030;5.572;2023-04-02T00:21:58;15.49;;;13.37;;
15516;SDS011;7860;52.030;5.572;2023-04-02T00:22:58;16.65;;;13.64;;
15516;SDS011;7860;52.030;5.572;2023-04-02T00:24:00;16.39;;;13.58;;
15516;SDS011;7860;52.030;5.572;2023-04-02T00:25:00;15.83;;;12.85;;
15516;SDS011;7860;52.030;5.572;2023-04-02T00:26:00;15.28;;;12.81;;
15516;SDS011;7860;52.030;5.572;2023-04-02T00:27:00;16.98;;;13.04;;
15516;SDS011;7860;52.030;5.572;2023-04-02T00:28:01;15.71;;;13.35;;
15516;SDS011;7860;52.030;5.572;2023-04-02T00:29:02;17.10;;;13.62;;
15516;SDS011;7860;52.030;5.572;2023-04-02T00:30:06;16.46;;;12.61;;
15516;SDS011;7860;52.030;5.572;2023-04-02T00:31:02;15.88;;;12.83;;
15516;SDS011;7860;52.030;5.572;2023-04-02T00:32:02;15.58;;;12.64;;
15516;SDS011;7860;52.030;5.572;2023-04-02T00:33:03;14.84;;;12.54;;
15516;SDS011;7860;52.030;5.572;2023-04-02T00:34:05;16.24;;;13.49;;
15516;SDS011;7860;52.030;5.572;2023-04-02T00:35:06;16.41;;;13.21;;
15516;SDS011;7860;52.030;5.572;2023-04-02T00:36:05;15.88;;;12.85;;
15516;SDS011;7860;52.030;5.572;2023-04-02T00:37:05;16.48;;;13.26;;
15516;SDS011;7860;52.030;5.572;2023-04-02T00:38:07;14.94;;;12.46;;
15516;SDS011;7860;52.030;5.572;2023-04-02T00:39:08;15.61;;;13.23;;
15516;SDS011;7860;52.030;5.572;2023-04-02T00:40:08;16.00;;;13.22;;
15516;SDS011;7860;52.030;5.572;2023-04-02T00:41:07;16.25;;;12.61;;
15516;SDS011;7860;52.030;5.572;2023-04-02T00:42:08;15.44;;;12.65;;
15516;SDS011;7860;52.030;5.572;2023-04-02T00:43:08;14.72;;;12.68;;
15516;SDS011;7860;52.030;5.572;2023-04-02T00:44:09;16.16;;;12.65;;
15516;SDS011;7860;52.030;5.572;2023-04-02T00:45:09;15.83;;;11.82;;
15516;SDS011;7860;52.030;5.572;2023-04-02T00:46:10;14.67;;;12.59;;
15516;SDS011;7860;52.030;5.572;2023-04-02T00:47:11;16.59;;;12.11;;
15516;SDS011;7860;52.030;5.572;2023-04-02T00:48:12;14.63;;;12.03;;
15516;SDS011;7860;52.030;5.572;2023-04-02T00:49:14;14.03;;;11.48;;
15516;SDS011;7860;52.030;5.572;2023-04-02T00:50:17;14.98;;;12.01;;
15516;SDS011;7860;52.030;5.572;2023-04-02T00:51:13;14.14;;;11.42;;
15516;SDS011;7860;52.030;5.572;2023-04-02T00:52:13;14.02;;;11.54;;
15516;SDS011;7860;52.030;5.572;2023-04-02T00:53:15;13.84;;;11.56;;
15516;SDS011;7860;52.030;5.572;2023-04-02T00:54:13;13.25;;;11.12;;
15516;SDS011;7860;52.030;5.572;2023-04-02T00:55:14;15.65;;;11.98;;
15516;SDS011;7860;52.030;5.572;2023-04-02T00:56:16;14.98;;;11.35;;
15516;SDS011;7860;52.030;5.572;2023-04-02T00:57:16;15.05;;;11.38;;
15516;SDS011;7860;52.030;5.572;2023-04-02T00:58:16;13.78;;;10.50;;
15516;SDS011;7860;52.030;5.572;2023-04-02T00:59:18;13.55;;;11.22;;
15516;SDS011;7860;52.030;5.572;2023-04-02T01:00:19;13.52;;;11.50;;
15516;SDS011;7860;52.030;5.572;2023-04-02T01:01:18;13.74;;;11.20;;
15516;SDS011;7860;52.030;5.572;2023-04-02T01:02:20;14.86;;;11.72;;
15516;SDS011;7860;52.030;5.572;2023-04-02T01:03:25;13.15;;;11.27;;
15516;SDS011;7860;52.030;5.572;2023-04-02T01:04:34;14.55;;;11.43;;
15516;SDS011;7860;52.030;5.572;2023-04-02T01:05:20;14.03;;;11.91;;
15516;SDS011;7860;52.030;5.572;2023-04-02T01:06:19;15.09;;;11.49;;
15516;SDS011;7860;52.030;5.572;2023-04-02T01:07:22;15.34;;;12.15;;
15516;SDS011;7860;52.030;5.572;2023-04-02T01:08:21;15.69;;;11.80;;
15516;SDS011;7860;52.030;5.572;2023-04-02T01:09:23;14.25;;;11.92;;
15516;SDS011;7860;52.030;5.572;2023-04-02T01:10:26;14.18;;;12.02;;
15516;SDS011;7860;52.030;5.572;2023-04-02T01:11:26;16.66;;;11.77;;
15516;SDS011;7860;52.030;5.572;2023-04-02T01:12:27;15.60;;;11.43;;
15516;SDS011;7860;52.030;5.572;2023-04-02T01:13:24;14.90;;;11.93;;
15516;SDS011;7860;52.030;5.572;2023-04-02T01:14:27;15.51;;;12.15;;
15516;SDS011;7860;52.030;5.572;2023-04-02T01:15:24;14.72;;;11.80;;
15516;SDS011;7860;52.030;5.572;2023-04-02T01:16:27;17.02;;;12.76;;
15516;SDS011;7860;52.030;5.572;2023-04-02T01:17:28;14.97;;;12.49;;
15516;SDS011;7860;52.030;5.572;2023-04-02T01:18:29;15.90;;;13.13;;
15516;SDS011;7860;52.030;5.572;2023-04-02T01:19:37;15.17;;;11.99;;
15516;SDS011;7860;52.030;5.572;2023-04-02T01:20:31;14.61;;;11.83;;
15516;SDS011;7860;52.030;5.572;2023-04-02T01:21:31;14.73;;;12.20;;
15516;SDS011;7860;52.030;5.572;2023-04-02T01:22:28;15.10;;;11.59;;
15516;SDS011;7860;52.030;5.572;2023-04-02T01:23:29;15.83;;;11.70;;
15516;SDS011;7860;52.030;5.572;2023-04-02T01:24:29;14.30;;;12.05;;
15516;SDS011;7860;52.030;5.572;2023-04-02T01:25:29;14.05;;;11.38;;
15516;SDS011;7860;52.030;5.572;2023-04-02T01:26:33;14.14;;;11.41;;
15516;SDS011;7860;52.030;5.572;2023-04-02T01:27:31;14.54;;;11.13;;
15516;SDS011;7860;52.030;5.572;2023-04-02T01:28:31;14.16;;;10.76;;
15516;SDS011;7860;52.030;5.572;2023-04-02T01:29:31;13.34;;;10.76;;
15516;SDS011;7860;52.030;5.572;2023-04-02T01:30:30;13.36;;;10.94;;
15516;SDS011;7860;52.030;5.572;2023-04-02T01:31:30;13.42;;;10.81;;
15516;SDS011;7860;52.030;5.572;2023-04-02T01:32:31;13.88;;;10.67;;
15516;SDS011;7860;52.030;5.572;2023-04-02T01:33:33;12.69;;;10.38;;
15516;SDS011;7860;52.030;5.572;2023-04-02T01:34:32;13.71;;;10.64;;
15516;SDS011;7860;52.030;5.572;2023-04-02T01:35:35;13.63;;;10.42;;
15516;SDS011;7860;52.030;5.572;2023-04-02T01:36:35;14.40;;;11.14;;
15516;SDS011;7860;52.030;5.572;2023-04-02T01:37:35;14.34;;;11.03;;
15516;SDS011;7860;52.030;5.572;2023-04-02T01:38:35;14.20;;;10.70;;
15516;SDS011;7860;52.030;5.572;2023-04-02T01:39:39;14.69;;;11.17;;
15516;SDS011;7860;52.030;5.572;2023-04-02T01:40:36;13.53;;;10.67;;
15516;SDS011;7860;52.030;5.572;2023-04-02T01:41:37;14.97;;;11.03;;
15516;SDS011;7860;52.030;5.572;2023-04-02T01:42:36;14.71;;;11.00;;
15516;SDS011;7860;52.030;5.572;2023-04-02T01:43:38;14.76;;;10.90;;
15516;SDS011;7860;52.030;5.572;2023-04-02T01:44:38;13.80;;;11.00;;
15516;SDS011;7860;52.030;5.572;2023-04-02T01:45:38;14.57;;;11.63;;
15516;SDS011;7860;52.030;5.572;2023-04-02T01:46:39;13.46;;;11.17;;
15516;SDS011;7860;52.030;5.572;2023-04-02T01:47:39;15.05;;;11.23;;
15516;SDS011;7860;52.030;5.572;2023-04-02T01:48:39;13.87;;;10.75;;
15516;SDS011;7860;52.030;5.572;2023-04-02T01:49:40;14.86;;;10.41;;
15516;SDS011;7860;52.030;5.572;2023-04-02T01:50:40;15.27;;;11.24;;
15516;SDS011;7860;52.030;5.572;2023-04-02T01:51:41;13.39;;;10.55;;
15516;SDS011;7860;52.030;5.572;2023-04-02T01:52:41;13.80;;;10.67;;
15516;SDS011;7860;52.030;5.572;2023-04-02T01:53:41;13.53;;;10.31;;
15516;SDS011;7860;52.030;5.572;2023-04-02T01:54:42;13.00;;;11.02;;
15516;SDS011;7860;52.030;5.572;2023-04-02T01:55:43;12.80;;;10.77;;
15516;SDS011;7860;52.030;5.572;2023-04-02T01:56:43;12.21;;;10.13;;
15516;SDS011;7860;52.030;5.572;2023-04-02T01:57:43;12.97;;;11.11;;
15516;SDS011;7860;52.030;5.572;2023-04-02T01:58:43;14.60;;;11.22;;
15516;SDS011;7860;52.030;5.572;2023-04-02T01:59:43;14.44;;;11.48;;
15516;SDS011;7860;52.030;5.572;2023-04-02T02:00:45;14.36;;;11.11;;
15516;SDS011;7860;52.030;5.572;2023-04-02T02:01:45;14.41;;;11.72;;
15516;SDS011;7860;52.030;5.572;2023-04-02T02:02:46;15.16;;;11.30;;
15516;SDS011;7860;52.030;5.572;2023-04-02T02:03:45;15.05;;;12.07;;
15516;SDS011;7860;52.030;5.572;2023-04-02T02:04:46;14.88;;;11.60;;
15516;SDS011;7860;52.030;5.572;2023-04-02T02:05:47;14.77;;;11.59;;
15516;SDS011;7860;52.030;5.572;2023-04-02T02:06:47;16.20;;;12.22;;
15516;SDS011;7860;52.030;5.572;2023-04-02T02:07:47;15.58;;;11.64;;
15516;SDS011;7860;52.030;5.572;2023-04-02T02:08:48;14.98;;;12.08;;
15516;SDS011;7860;52.030;5.572;2023-04-02T02:09:48;15.48;;;12.18;;
15516;SDS011;7860;52.030;5.572;2023-04-02T02:10:49;15.18;;;11.81;;
15516;SDS011;7860;52.030;5.572;2023-04-02T02:11:50;17.22;;;12.75;;
15516;SDS011;7860;52.030;5.572;2023-04-02T02:12:51;15.93;;;11.97;;
15516;SDS011;7860;52.030;5.572;2023-04-02T02:13:52;15.51;;;11.81;;
15516;SDS011;7860;52.030;5.572;2023-04-02T02:14:51;14.42;;;11.57;;
15516;SDS011;7860;52.030;5.572;2023-04-02T02:15:52;14.11;;;11.25;;
15516;SDS011;7860;52.030;5.572;2023-04-02T02:16:52;13.45;;;10.89;;
15516;SDS011;7860;52.030;5.572;2023-04-02T02:17:53;13.72;;;10.75;;
15516;SDS011;7860;52.030;5.572;2023-04-02T02:18:53;14.44;;;11.03;;
15516;SDS011;7860;52.030;5.572;2023-04-02T02:19:54;14.01;;;10.41;;
15516;SDS011;7860;52.030;5.572;2023-04-02T02:20:54;15.42;;;11.12;;
15516;SDS011;7860;52.030;5.572;2023-04-02T02:21:55;14.63;;;11.18;;
15516;SDS011;7860;52.030;5.572;2023-04-02T02:22:55;14.96;;;11.00;;
15516;SDS011;7860;52.030;5.572;2023-04-02T02:23:56;15.12;;;11.35;;
15516;SDS011;7860;52.030;5.572;2023-04-02T02:24:56;14.58;;;11.34;;
15516;SDS011;7860;52.030;5.572;2023-04-02T02:25:57;14.70;;;11.56;;
15516;SDS011;7860;52.030;5.572;2023-04-02T02:27:02;14.01;;;11.24;;
15516;SDS011;7860;52.030;5.572;2023-04-02T02:27:58;15.11;;;11.61;;
15516;SDS011;7860;52.030;5.572;2023-04-02T02:28:58;14.63;;;11.60;;
15516;SDS011;7860;52.030;5.572;2023-04-02T02:29:59;14.04;;;10.92;;
15516;SDS011;7860;52.030;5.572;2023-04-02T02:31:00;12.97;;;10.29;;
15516;SDS011;7860;52.030;5.572;2023-04-02T02:31:59;14.52;;;10.20;;
15516;SDS011;7860;52.030;5.572;2023-04-02T02:33:01;13.76;;;10.50;;
15516;SDS011;7860;52.030;5.572;2023-04-02T02:34:02;12.95;;;10.27;;
15516;SDS011;7860;52.030;5.572;2023-04-02T02:35:01;13.17;;;10.45;;
15516;SDS011;7860;52.030;5.572;2023-04-02T02:36:02;13.57;;;10.05;;
15516;SDS011;7860;52.030;5.572;2023-04-02T02:37:03;14.21;;;10.07;;
15516;SDS011;7860;52.030;5.572;2023-04-02T02:38:09;14.55;;;10.80;;
15516;SDS011;7860;52.030;5.572;2023-04-02T02:39:03;14.46;;;10.63;;
15516;SDS011;7860;52.030;5.572;2023-04-02T02:40:04;14.11;;;10.30;;
15516;SDS011;7860;52.030;5.572;2023-04-02T02:41:06;14.91;;;10.19;;
15516;SDS011;7860;52.030;5.572;2023-04-02T02:42:07;13.70;;;10.74;;
15516;SDS011;7860;52.030;5.572;2023-04-02T02:43:05;13.65;;;10.58;;
15516;SDS011;7860;52.030;5.572;2023-04-02T02:44:10;12.93;;;10.42;;
15516;SDS011;7860;52.030;5.572;2023-04-02T02:45:06;15.60;;;10.85;;
15516;SDS011;7860;52.030;5.572;2023-04-02T02:46:06;12.66;;;10.37;;
15516;SDS011;7860;52.030;5.572;2023-04-02T02:47:08;14.07;;;10.92;;
15516;SDS011;7860;52.030;5.572;2023-04-02T02:48:09;13.91;;;10.56;;
15516;SDS011;7860;52.030;5.572;2023-04-02T02:49:08;14.89;;;10.84;;
15516;SDS011;7860;52.030;5.572;2023-04-02T02:50:10;15.28;;;10.70;;
15516;SDS011;7860;52.030;5.572;2023-04-02T02:51:09;14.76;;;10.79;;
15516;SDS011;7860;52.030;5.572;2023-04-02T02:52:12;15.85;;;11.04;;
15516;SDS011;7860;52.030;5.572;2023-04-02T02:53:13;15.15;;;11.18;;
15516;SDS011;7860;52.030;5.572;2023-04-02T02:54:10;16.00;;;10.88;;
15516;SDS011;7860;52.030;5.572;2023-04-02T02:55:10;15.21;;;11.89;;
15516;SDS011;7860;52.030;5.572;2023-04-02T02:56:11;13.60;;;10.94;;
15516;SDS011;7860;52.030;5.572;2023-04-02T02:57:12;16.01;;;11.05;;
15516;SDS011;7860;52.030;5.572;2023-04-02T02:58:13;14.66;;;11.18;;
15516;SDS011;7860;52.030;5.572;2023-04-02T02:59:12;15.40;;;11.56;;
15516;SDS011;7860;52.030;5.572;2023-04-02T03:00:13;15.60;;;11.09;;
15516;SDS011;7860;52.030;5.572;2023-04-02T03:01:12;16.55;;;11.45;;
15516;SDS011;7860;52.030;5.572;2023-04-02T03:02:14;14.60;;;11.47;;
15516;SDS011;7860;52.030;5.572;2023-04-02T03:03:15;15.34;;;11.64;;
15516;SDS011;7860;52.030;5.572;2023-04-02T03:04:18;16.03;;;11.65;;
15516;SDS011;7860;52.030;5.572;2023-04-02T03:05:15;16.99;;;11.37;;
15516;SDS011;7860;52.030;5.572;2023-04-02T03:06:16;14.78;;;11.43;;
15516;SDS011;7860;52.030;5.572;2023-04-02T03:07:15;15.97;;;12.06;;
15516;SDS011;7860;52.030;5.572;2023-04-02T03:08:18;15.38;;;11.67;;
15516;SDS011;7860;52.030;5.572;2023-04-02T03:09:18;15.15;;;11.79;;
15516;SDS011;7860;52.030;5.572;2023-04-02T03:10:18;15.34;;;11.40;;
15516;SDS011;7860;52.030;5.572;2023-04-02T03:11:18;15.99;;;11.76;;
15516;SDS011;7860;52.030;5.572;2023-04-02T03:12:24;15.99;;;11.57;;
15516;SDS011;7860;52.030;5.572;2023-04-02T03:13:19;14.68;;;11.36;;
15516;SDS011;7860;52.030;5.572;2023-04-02T03:14:21;14.39;;;10.71;;
15516;SDS011;7860;52.030;5.572;2023-04-02T03:15:20;15.16;;;11.14;;
15516;SDS011;7860;52.030;5.572;2023-04-02T03:16:21;14.16;;;10.96;;
15516;SDS011;7860;52.030;5.572;2023-04-02T03:17:22;14.56;;;10.89;;
15516;SDS011;7860;52.030;5.572;2023-04-02T03:18:23;17.50;;;11.26;;
15516;SDS011;7860;52.030;5.572;2023-04-02T03:19:23;14.15;;;11.15;;
15516;SDS011;7860;52.030;5.572;2023-04-02T03:20:23;14.58;;;11.26;;
15516;SDS011;7860;52.030;5.572;2023-04-02T03:21:25;15.10;;;11.51;;
15516;SDS011;7860;52.030;5.572;2023-04-02T03:22:25;15.71;;;11.33;;
15516;SDS011;7860;52.030;5.572;2023-04-02T03:23:26;15.05;;;10.66;;
15516;SDS011;7860;52.030;5.572;2023-04-02T03:24:26;15.47;;;11.49;;
15516;SDS011;7860;52.030;5.572;2023-04-02T03:25:26;13.75;;;10.83;;
15516;SDS011;7860;52.030;5.572;2023-04-02T03:26:27;15.29;;;11.45;;
15516;SDS011;7860;52.030;5.572;2023-04-02T03:27:26;14.89;;;11.28;;
15516;SDS011;7860;52.030;5.572;2023-04-02T03:28:26;15.48;;;11.49;;
15516;SDS011;7860;52.030;5.572;2023-04-02T03:29:27;13.99;;;11.12;;
15516;SDS011;7860;52.030;5.572;2023-04-02T03:30:28;14.94;;;11.65;;
15516;SDS011;7860;52.030;5.572;2023-04-02T03:31:30;14.14;;;11.68;;
15516;SDS011;7860;52.030;5.572;2023-04-02T03:32:28;15.53;;;12.10;;
15516;SDS011;7860;52.030;5.572;2023-04-02T03:33:30;15.03;;;11.97;;
15516;SDS011;7860;52.030;5.572;2023-04-02T03:34:29;15.25;;;12.32;;
15516;SDS011;7860;52.030;5.572;2023-04-02T03:35:31;14.55;;;11.59;;
15516;SDS011;7860;52.030;5.572;2023-04-02T03:36:30;15.03;;;12.02;;
15516;SDS011;7860;52.030;5.572;2023-04-02T03:37:31;14.70;;;11.88;;
15516;SDS011;7860;52.030;5.572;2023-04-02T03:38:31;16.98;;;11.52;;
15516;SDS011;7860;52.030;5.572;2023-04-02T03:39:33;17.55;;;12.25;;
15516;SDS011;7860;52.030;5.572;2023-04-02T03:40:33;15.37;;;11.98;;
15516;SDS011;7860;52.030;5.572;2023-04-02T03:41:39;16.07;;;11.99;;
15516;SDS011;7860;52.030;5.572;2023-04-02T03:42:36;16.40;;;12.36;;
15516;SDS011;7860;52.030;5.572;2023-04-02T03:43:35;15.50;;;12.55;;
15516;SDS011;7860;52.030;5.572;2023-04-02T03:44:35;15.73;;;11.50;;
15516;SDS011;7860;52.030;5.572;2023-04-02T03:45:36;18.66;;;11.92;;
15516;SDS011;7860;52.030;5.572;2023-04-02T03:46:35;14.85;;;11.30;;
15516;SDS011;7860;52.030;5.572;2023-04-02T03:47:37;16.00;;;11.79;;
15516;SDS011;7860;52.030;5.572;2023-04-02T03:48:37;14.76;;;11.08;;
15516;SDS011;7860;52.030;5.572;2023-04-02T03:49:37;14.50;;;11.14;;
15516;SDS011;7860;52.030;5.572;2023-04-02T03:50:37;13.56;;;10.96;;
15516;SDS011;7860;52.030;5.572;2023-04-02T03:51:38;16.75;;;11.26;;
15516;SDS011;7860;52.030;5.572;2023-04-02T03:52:38;14.86;;;11.21;;
15516;SDS011;7860;52.030;5.572;2023-04-02T03:53:38;13.97;;;11.23;;
15516;SDS011;7860;52.030;5.572;2023-04-02T03:54:39;13.49;;;11.19;;
15516;SDS011;7860;52.030;5.572;2023-04-02T03:55:40;13.61;;;10.76;;
15516;SDS011;7860;52.030;5.572;2023-04-02T03:56:39;15.17;;;10.94;;
15516;SDS011;7860;52.030;5.572;2023-04-02T03:57:42;13.61;;;10.38;;
15516;SDS011;7860;52.030;5.572;2023-04-02T03:58:43;15.28;;;11.13;;
15516;SDS011;7860;52.030;5.572;2023-04-02T03:59:43;13.36;;;11.19;;
15516;SDS011;7860;52.030;5.572;2023-04-02T04:00:43;14.55;;;11.24;;
15516;SDS011;7860;52.030;5.572;2023-04-02T04:01:44;14.70;;;10.94;;
15516;SDS011;7860;52.030;5.572;2023-04-02T04:02:44;14.99;;;10.88;;
15516;SDS011;7860;52.030;5.572;2023-04-02T04:03:44;14.73;;;10.43;;
15516;SDS011;7860;52.030;5.572;2023-04-02T04:04:44;15.56;;;11.32;;
15516;SDS011;7860;52.030;5.572;2023-04-02T04:05:45;14.80;;;11.03;;
15516;SDS011;7860;52.030;5.572;2023-04-02T04:06:45;15.04;;;11.23;;
15516;SDS011;7860;52.030;5.572;2023-04-02T04:07:45;16.26;;;10.86;;
15516;SDS011;7860;52.030;5.572;2023-04-02T04:08:48;17.18;;;11.12;;
15516;SDS011;7860;52.030;5.572;2023-04-02T04:09:46;15.60;;;11.34;;
15516;SDS011;7860;52.030;5.572;2023-04-02T04:10:49;15.84;;;10.99;;
15516;SDS011;7860;52.030;5.572;2023-04-02T04:11:47;17.10;;;11.47;;
15516;SDS011;7860;52.030;5.572;2023-04-02T04:12:48;16.68;;;10.91;;
15516;SDS011;7860;52.030;5.572;2023-04-02T04:13:49;16.02;;;11.38;;
15516;SDS011;7860;52.030;5.572;2023-04-02T04:14:50;17.28;;;11.07;;
15516;SDS011;7860;52.030;5.572;2023-04-02T04:15:50;17.32;;;11.37;;
15516;SDS011;7860;52.030;5.572;2023-04-02T04:16:50;16.90;;;11.31;;
15516;SDS011;7860;52.030;5.572;2023-04-02T04:17:52;16.57;;;11.91;;
15516;SDS011;7860;52.030;5.572;2023-04-02T04:18:52;16.86;;;11.02;;
15516;SDS011;7860;52.030;5.572;2023-04-02T04:19:53;15.82;;;11.29;;
15516;SDS011;7860;52.030;5.572;2023-04-02T04:20:53;16.54;;;11.18;;
15516;SDS011;7860;52.030;5.572;2023-04-02T04:21:52;14.96;;;11.21;;
15516;SDS011;7860;52.030;5.572;2023-04-02T04:22:53;15.48;;;11.15;;
15516;SDS011;7860;52.030;5.572;2023-04-02T04:23:54;15.92;;;11.51;;
15516;SDS011;7860;52.030;5.572;2023-04-02T04:24:54;17.02;;;11.25;;
15516;SDS011;7860;52.030;5.572;2023-04-02T04:25:56;16.60;;;11.09;;
15516;SDS011;7860;52.030;5.572;2023-04-02T04:26:57;17.87;;;10.78;;
15516;SDS011;7860;52.030;5.572;2023-04-02T04:28:00;15.62;;;10.64;;
15516;SDS011;7860;52.030;5.572;2023-04-02T04:28:58;16.27;;;10.88;;
15516;SDS011;7860;52.030;5.572;2023-04-02T04:29:59;15.33;;;10.72;;
15516;SDS011;7860;52.030;5.572;2023-04-02T04:30:59;15.69;;;10.69;;
15516;SDS011;7860;52.030;5.572;2023-04-02T04:32:08;14.40;;;10.35;;
15516;SDS011;7860;52.030;5.572;2023-04-02T04:33:00;15.80;;;10.38;;
15516;SDS011;7860;52.030;5.572;2023-04-02T04:34:04;15.41;;;10.02;;
15516;SDS011;7860;52.030;5.572;2023-04-02T04:35:03;14.44;;;10.37;;
15516;SDS011;7860;52.030;5.572;2023-04-02T04:36:01;14.04;;;9.82;;
15516;SDS011;7860;52.030;5.572;2023-04-02T04:37:02;16.07;;;10.38;;
15516;SDS011;7860;52.030;5.572;2023-04-02T04:38:03;16.62;;;10.12;;
15516;SDS011;7860;52.030;5.572;2023-04-02T04:39:03;14.29;;;9.94;;
15516;SDS011;7860;52.030;5.572;2023-04-02T04:40:04;14.63;;;9.69;;
15516;SDS011;7860;52.030;5.572;2023-04-02T04:41:04;14.02;;;9.68;;
15516;SDS011;7860;52.030;5.572;2023-04-02T04:42:04;13.98;;;9.48;;
15516;SDS011;7860;52.030;5.572;2023-04-02T04:43:06;13.67;;;9.94;;
15516;SDS011;7860;52.030;5.572;2023-04-02T04:44:06;14.85;;;9.98;;
15516;SDS011;7860;52.030;5.572;2023-04-02T04:45:08;13.74;;;9.77;;
15516;SDS011;7860;52.030;5.572;2023-04-02T04:46:08;13.74;;;10.16;;
15516;SDS011;7860;52.030;5.572;2023-04-02T04:47:09;14.63;;;10.05;;
15516;SDS011;7860;52.030;5.572;2023-04-02T04:48:09;15.26;;;10.40;;
15516;SDS011;7860;52.030;5.572;2023-04-02T04:49:09;14.67;;;9.56;;
15516;SDS011;7860;52.030;5.572;2023-04-02T04:50:11;13.12;;;9.43;;
15516;SDS011;7860;52.030;5.572;2023-04-02T04:51:15;14.74;;;9.63;;
15516;SDS011;7860;52.030;5.572;2023-04-02T04:52:13;13.60;;;9.63;;
15516;SDS011;7860;52.030;5.572;2023-04-02T04:53:13;14.36;;;9.80;;
15516;SDS011;7860;52.030;5.572;2023-04-02T04:54:12;14.05;;;9.78;;
15516;SDS011;7860;52.030;5.572;2023-04-02T04:55:18;13.18;;;9.47;;
15516;SDS011;7860;52.030;5.572;2023-04-02T04:56:14;13.67;;;9.14;;
15516;SDS011;7860;52.030;5.572;2023-04-02T04:57:19;13.06;;;9.68;;
15516;SDS011;7860;52.030;5.572;2023-04-02T04:58:17;13.96;;;9.60;;
15516;SDS011;7860;52.030;5.572;2023-04-02T04:59:16;13.99;;;9.81;;
15516;SDS011;7860;52.030;5.572;2023-04-02T05:00:17;15.65;;;9.96;;
15516;SDS011;7860;52.030;5.572;2023-04-02T05:01:17;15.26;;;9.48;;
15516;SDS011;7860;52.030;5.572;2023-04-02T05:02:18;12.76;;;8.85;;
15516;SDS011;7860;52.030;5.572;2023-04-02T05:03:20;13.26;;;8.75;;
15516;SDS011;7860;52.030;5.572;2023-04-02T05:04:19;13.50;;;8.67;;
15516;SDS011;7860;52.030;5.572;2023-04-02T05:05:20;13.12;;;8.32;;
15516;SDS011;7860;52.030;5.572;2023-04-02T05:06:23;12.43;;;7.64;;
15516;SDS011;7860;52.030;5.572;2023-04-02T05:07:21;12.45;;;6.98;;
15516;SDS011;7860;52.030;5.572;2023-04-02T05:08:25;12.26;;;7.06;;
15516;SDS011;7860;52.030;5.572;2023-04-02T05:09:23;11.85;;;7.09;;
15516;SDS011;7860;52.030;5.572;2023-04-02T05:10:24;12.27;;;7.21;;
15516;SDS011;7860;52.030;5.572;2023-04-02T05:11:25;11.41;;;6.28;;
15516;SDS011;7860;52.030;5.572;2023-04-02T05:12:25;9.98;;;6.01;;
15516;SDS011;7860;52.030;5.572;2023-04-02T05:13:27;10.82;;;6.20;;
15516;SDS011;7860;52.030;5.572;2023-04-02T05:14:26;12.12;;;6.26;;
15516;SDS011;7860;52.030;5.572;2023-04-02T05:15:26;10.69;;;6.02;;
15516;SDS011;7860;52.030;5.572;2023-04-02T05:16:27;11.05;;;5.99;;
15516;SDS011;7860;52.030;5.572;2023-04-02T05:17:27;9.12;;;5.56;;
15516;SDS011;7860;52.030;5.572;2023-04-02T05:18:27;10.02;;;5.87;;
15516;SDS011;7860;52.030;5.572;2023-04-02T05:19:29;11.32;;;5.69;;
15516;SDS011;7860;52.030;5.572;2023-04-02T05:20:28;10.93;;;5.82;;
15516;SDS011;7860;52.030;5.572;2023-04-02T05:21:31;9.68;;;5.67;;
15516;SDS011;7860;52.030;5.572;2023-04-02T05:22:32;10.38;;;5.68;;
15516;SDS011;7860;52.030;5.572;2023-04-02T05:23:33;10.05;;;5.96;;
15516;SDS011;7860;52.030;5.572;2023-04-02T05:24:34;11.34;;;6.06;;
15516;SDS011;7860;52.030;5.572;2023-04-02T05:25:31;10.83;;;6.01;;
15516;SDS011;7860;52.030;5.572;2023-04-02T05:26:32;10.62;;;5.79;;
15516;SDS011;7860;52.030;5.572;2023-04-02T05:27:35;11.34;;;5.97;;
15516;SDS011;7860;52.030;5.572;2023-04-02T05:28:34;9.56;;;5.72;;
15516;SDS011;7860;52.030;5.572;2023-04-02T05:29:34;9.40;;;5.70;;
15516;SDS011;7860;52.030;5.572;2023-04-02T05:30:37;11.85;;;5.97;;
15516;SDS011;7860;52.030;5.572;2023-04-02T05:31:35;11.19;;;5.68;;
15516;SDS011;7860;52.030;5.572;2023-04-02T05:32:35;10.59;;;5.91;;
15516;SDS011;7860;52.030;5.572;2023-04-02T05:33:35;11.62;;;6.07;;
15516;SDS011;7860;52.030;5.572;2023-04-02T05:34:37;9.21;;;5.45;;
15516;SDS011;7860;52.030;5.572;2023-04-02T05:35:39;10.92;;;5.83;;
15516;SDS011;7860;52.030;5.572;2023-04-02T05:36:37;10.84;;;5.68;;
15516;SDS011;7860;52.030;5.572;2023-04-02T05:37:37;11.10;;;5.76;;
15516;SDS011;7860;52.030;5.572;2023-04-02T05:38:38;11.03;;;5.74;;
15516;SDS011;7860;52.030;5.572;2023-04-02T05:39:38;13.20;;;6.34;;
15516;SDS011;7860;52.030;5.572;2023-04-02T05:40:38;12.28;;;5.78;;
15516;SDS011;7860;52.030;5.572;2023-04-02T05:41:39;10.96;;;5.75;;
15516;SDS011;7860;52.030;5.572;2023-04-02T05:42:38;10.61;;;5.54;;
15516;SDS011;7860;52.030;5.572;2023-04-02T05:43:39;12.92;;;6.06;;
15516;SDS011;7860;52.030;5.572;2023-04-02T05:44:42;10.86;;;5.30;;
15516;SDS011;7860;52.030;5.572;2023-04-02T05:45:42;12.05;;;5.59;;
15516;SDS011;7860;52.030;5.572;2023-04-02T05:46:42;10.88;;;5.74;;
15516;SDS011;7860;52.030;5.572;2023-04-02T05:47:42;10.59;;;5.51;;
15516;SDS011;7860;52.030;5.572;2023-04-02T05:48:43;10.60;;;5.40;;
15516;SDS011;7860;52.030;5.572;2023-04-02T05:49:44;10.86;;;5.64;;
15516;SDS011;7860;52.030;5.572;2023-04-02T05:50:46;11.60;;;5.37;;
15516;SDS011;7860;52.030;5.572;2023-04-02T05:51:44;10.84;;;5.68;;
15516;SDS011;7860;52.030;5.572;2023-04-02T05:52:47;10.64;;;5.53;;
15516;SDS011;7860;52.030;5.572;2023-04-02T05:53:46;11.20;;;5.54;;
15516;SDS011;7860;52.030;5.572;2023-04-02T05:54:47;9.95;;;5.44;;
15516;SDS011;7860;52.030;5.572;2023-04-02T05:55:49;10.81;;;5.53;;
15516;SDS011;7860;52.030;5.572;2023-04-02T05:56:47;10.84;;;5.25;;
15516;SDS011;7860;52.030;5.572;2023-04-02T05:57:48;11.38;;;5.37;;
15516;SDS011;7860;52.030;5.572;2023-04-02T05:58:49;9.89;;;5.10;;
15516;SDS011;7860;52.030;5.572;2023-04-02T05:59:50;10.90;;;5.20;;
15516;SDS011;7860;52.030;5.572;2023-04-02T06:00:53;10.37;;;4.66;;